Time;durP1;ratioP1;P1;durP2;ratioP2;P2;SDS_P1;SDS_P2;PMS_P1;PMS_P2;Temp;Humidity;BMP_temperature;BMP_pressure;BME280_temperature;BME280_humidity;BME280_pressure;Samples;Min_cycle;Max_cycle;Signal;HPM_P1;HPM_P2
2021/05/20 00:01:02;;;;;;;;;;;;;;;;;;5094475;28;39496;-76
2021/05/20 00:03:28;;;;;;;;;;;;;;;;;;5112659;28;39101;-78
2021/05/20 00:05:53;;;;;;;;;;;;;;;;;;5111932;28;37917;-79
2021/05/20 00:08:19;;;;;;;;;;;;;;;;;;5111960;28;39021;-82
2021/05/20 00:10:44;;;;;;;;;;;;;;;;;;5093278;27;40349;-82
2021/05/20 00:13:10;;;;;;;;;;;;;;;;;;5109637;28;39208;-83
2021/05/20 00:15:35;;;;;;;;;;;;;;;;;;5112023;28;38045;-83
2021/05/20 00:18:01;;;;;;;;;;;;;;;;;;5111964;28;39951;-83
2021/05/20 00:20:26;;;;;;;;;;;;;;;;;;5111589;28;40889;-83
2021/05/20 00:22:51;;;;;;;;;;;;;;;;;;5095048;28;38831;-82
2021/05/20 00:25:17;;;;;;;;;;;;;;;;;;5113237;28;39247;-83
2021/05/20 00:27:42;;;;;;;;;;;;;;;;;;5112705;28;40312;-83
2021/05/20 00:30:10;;;;;;;;;;;;;;;;;;5112698;28;40283;-83
2021/05/20 00:32:35;;;;;;;;;;;;;;;;;;5112155;28;38532;-83
2021/05/20 00:35:01;;;;;;;;;;;;;;;;;;5095025;28;38186;-82
2021/05/20 00:37:26;;;;;;;;;;;;;;;;;;5111855;28;39897;-81
2021/05/20 00:39:52;;;;;;;;;;;;;;;;;;5112389;28;40958;-82
2021/05/20 00:42:17;;;;;;;;;;;;;;;;;;5110874;28;39654;-82
2021/05/20 00:44:44;;;;;;;;;;;;;;;;;;5113216;28;38346;-76
2021/05/20 00:47:09;;;;;;;;;;;;;;;;;;5114649;28;39706;-81
2021/05/20 00:49:35;;;;;;;;;;;;;;;;;;5113986;28;41438;-73
2021/05/20 00:52:00;;;;;;;;;;;;;;;;;;5114567;28;39174;-79
2021/05/20 00:54:26;;;;;;;;;;;;;;;;;;5115377;28;39037;-82
2021/05/20 00:56:51;;;;;;;;;;;;;;;;;;5117839;28;39411;-79
2021/05/20 00:59:17;;;;;;;;;;;;;;;;;;5121310;28;41401;-81
2021/05/20 01:01:43;;;;;;;;;;;;;;;;;;5117379;28;38647;-84
2021/05/20 01:04:08;;;;;;;;;;;;;;;;;;5110581;28;37906;-82
2021/05/20 01:06:33;;;;;;;;;;;;;;;;;;5092502;28;39487;-83
2021/05/20 01:08:59;;;;;;;;;;;;;;;;;;5110248;28;40759;-82
2021/05/20 01:11:24;;;;;;;;;;;;;;;;;;5110812;28;39063;-83
2021/05/20 01:13:50;;;;;;;;;;;;;;;;;;5111958;28;38493;-80
2021/05/20 01:16:15;;;;;;;;;;;;;;;;;;5111364;28;40084;-80
2021/05/20 01:18:41;;;;;;;;;;;;;;;;;;5093980;28;39658;-79
2021/05/20 01:21:06;;;;;;;;;;;;;;;;;;5112055;28;39153;-82
2021/05/20 01:23:32;;;;;;;;;;;;;;;;;;5111616;28;38555;-81
2021/05/20 01:25:57;;;;;;;;;;;;;;;;;;5112592;28;40126;-82
2021/05/20 01:28:25;;;;;;;;;;;;;;;;;;5111060;28;40389;-80
2021/05/20 01:30:51;;;;;;;;;;;;;;;;;;5111983;28;39127;-81
2021/05/20 01:33:16;;;;;;;;;;;;;;;;;;5111590;28;38315;-82
2021/05/20 01:35:42;;;;;;;;;;;;;;;;;;5112098;28;39774;-82
2021/05/20 01:40:51;;;;;;;;;;;;;;;;;;5112865;28;39921;-85
2021/05/20 01:43:17;;;;;;;;;;;;;;;;;;5111911;28;38248;-84
2021/05/20 01:45:42;;;;;;;;;;;;;;;;;;5111179;28;40313;-81
2021/05/20 01:48:08;;;;;;;;;;;;;;;;;;5111791;28;40450;-79
2021/05/20 01:50:33;;;;;;;;;;;;;;;;;;5109936;28;39101;-86
2021/05/20 01:52:59;;;;;;;;;;;;;;;;;;5114591;27;38372;-84
2021/05/20 01:55:24;;;;;;;;;;;;;;;;;;5114367;28;40037;-83
2021/05/20 01:57:50;;;;;;;;;;;;;;;;;;5114700;28;40266;-84
2021/05/20 02:00:15;;;;;;;;;;;;;;;;;;5113814;28;38584;-81
2021/05/20 02:02:41;;;;;;;;;;;;;;;;;;5115775;28;38940;-85
2021/05/20 02:05:06;;;;;;;;;;;;;;;;;;5115757;28;40579;-80
2021/05/20 02:07:31;;;;;;;;;;;;;;;;;;5114179;28;40162;-80
2021/05/20 02:09:57;;;;;;;;;;;;;;;;;;5114509;28;39733;-78
2021/05/20 02:12:22;;;;;;;;;;;;;;;;;;5095679;28;38396;-79
2021/05/20 02:14:48;;;;;;;;;;;;;;;;;;5096194;28;40936;-79
2021/05/20 02:17:13;;;;;;;;;;;;;;;;;;5114567;28;40287;-73
2021/05/20 02:19:39;;;;;;;;;;;;;;;;;;5116222;28;38713;-80
2021/05/20 02:22:04;;;;;;;;;;;;;;;;;;5114868;28;38210;-76
2021/05/20 02:24:30;;;;;;;;;;;;;;;;;;5096917;28;38189;-78
2021/05/20 02:26:55;;;;;;;;;;;;;;;;;;5114344;28;40347;-77
2021/05/20 02:29:21;;;;;;;;;;;;;;;;;;5115188;28;39011;-79
2021/05/20 02:31:46;;;;;;;;;;;;;;;;;;5114657;28;38412;-76
2021/05/20 02:34:12;;;;;;;;;;;;;;;;;;5114007;28;39845;-80
2021/05/20 02:36:37;;;;;;;;;;;;;;;;;;5115358;28;40014;-73
2021/05/20 02:39:03;;;;;;;;;;;;;;;;;;5097415;28;39194;-80
2021/05/20 02:41:28;;;;;;;;;;;;;;;;;;5114770;28;38207;-76
2021/05/20 02:43:54;;;;;;;;;;;;;;;;;;5115310;28;39957;-77
2021/05/20 02:46:19;;;;;;;;;;;;;;;;;;5113721;28;40792;-80
2021/05/20 02:48:44;;;;;;;;;;;;;;;;;;5115845;28;38526;-80
2021/05/20 02:51:10;;;;;;;;;;;;;;;;;;5116680;28;38677;-83
2021/05/20 02:53:36;;;;;;;;;;;;;;;;;;5116291;28;40139;-81
2021/05/20 02:56:01;;;;;;;;;;;;;;;;;;5114377;28;40352;-83
2021/05/20 02:58:27;;;;;;;;;;;;;;;;;;5096080;28;39275;-83
2021/05/20 03:00:53;;;;;;;;;;;;;;;;;;5113428;28;39390;-79
2021/05/20 03:03:18;;;;;;;;;;;;;;;;;;5110579;27;40398;-80
2021/05/20 03:05:43;;;;;;;;;;;;;;;;;;5112717;28;40024;-77
2021/05/20 03:08:09;;;;;;;;;;;;;;;;;;5113175;28;39086;-80
2021/05/20 03:10:34;;;;;;;;;;;;;;;;;;5113613;28;38200;-80
2021/05/20 03:13:00;;;;;;;;;;;;;;;;;;5112927;28;40735;-82
2021/05/20 03:15:25;;;;;;;;;;;;;;;;;;5112179;28;40920;-80
2021/05/20 03:17:51;;;;;;;;;;;;;;;;;;5113138;28;39635;-83
2021/05/20 03:20:16;;;;;;;;;;;;;;;;;;5112698;28;38247;-83
2021/05/20 03:22:42;;;;;;;;;;;;;;;;;;5114024;28;39348;-73
2021/05/20 03:25:07;;;;;;;;;;;;;;;;;;5113907;28;41809;-82
2021/05/20 03:27:33;;;;;;;;;;;;;;;;;;5113754;28;39202;-84
2021/05/20 03:29:58;;;;;;;;;;;;;;;;;;5115117;28;39790;-81
2021/05/20 03:32:24;;;;;;;;;;;;;;;;;;5114357;28;39556;-79
2021/05/20 03:34:49;;;;;;;;;;;;;;;;;;5115365;28;41433;-84
2021/05/20 03:37:15;;;;;;;;;;;;;;;;;;5114239;28;39146;-81
2021/05/20 03:39:40;;;;;;;;;;;;;;;;;;5112839;28;38944;-84
2021/05/20 03:42:06;;;;;;;;;;;;;;;;;;5113372;28;39599;-82
2021/05/20 03:44:31;;;;;;;;;;;;;;;;;;5113457;28;41341;-83
2021/05/20 03:46:57;;;;;;;;;;;;;;;;;;5113613;28;39196;-84
2021/05/20 03:49:22;;;;;;;;;;;;;;;;;;5113310;28;38399;-80
2021/05/20 03:51:48;;;;;;;;;;;;;;;;;;5113466;28;39657;-84
2021/05/20 03:54:13;;;;;;;;;;;;;;;;;;5113742;28;40968;-79
2021/05/20 03:56:38;;;;;;;;;;;;;;;;;;5112286;28;38762;-79
2021/05/20 03:59:04;;;;;;;;;;;;;;;;;;5113709;28;38994;-77
2021/05/20 04:01:29;;;;;;;;;;;;;;;;;;5111263;28;39335;-81
2021/05/20 04:03:55;;;;;;;;;;;;;;;;;;5113511;28;40820;-75
2021/05/20 04:06:20;;;;;;;;;;;;;;;;;;5112665;28;38845;-80
2021/05/20 04:08:46;;;;;;;;;;;;;;;;;;5112071;28;37830;-75
2021/05/20 04:11:11;;;;;;;;;;;;;;;;;;5112346;28;39619;-77
2021/05/20 04:13:37;;;;;;;;;;;;;;;;;;5110771;28;41264;-80
2021/05/20 04:16:02;;;;;;;;;;;;;;;;;;5113365;27;39539;-76
2021/05/20 04:18:28;;;;;;;;;;;;;;;;;;5127997;27;36206;-78
2021/05/20 04:20:53;;;;;;;;;;;;;;;;;;5112913;28;39383;-74
2021/05/20 04:23:19;;;;;;;;;;;;;;;;;;5112817;28;40521;-80
2021/05/20 04:25:44;;;;;;;;;;;;;;;;;;5112260;28;39037;-79
2021/05/20 04:28:10;;;;;;;;;;;;;;;;;;5113373;28;38187;-83
2021/05/20 04:30:35;;;;;;;;;;;;;;;;;;5094749;28;39425;-79
2021/05/20 04:33:01;;;;;;;;;;;;;;;;;;5113937;28;39384;-84
2021/05/20 04:35:26;;;;;;;;;;;;;;;;;;5112882;28;40087;-80
2021/05/20 04:37:52;;;;;;;;;;;;;;;;;;5094425;28;39615;-74
2021/05/20 04:40:17;;;;;;;;;;;;;;;;;;5112732;28;40385;-82
2021/05/20 04:42:43;;;;;;;;;;;;;;;;;;5113209;28;40018;-84
2021/05/20 04:45:08;;;;;;;;;;;;;;;;;;5094785;28;37600;-80
2021/05/20 04:47:33;;;;;;;;;;;;;;;;;;5112892;28;38901;-81
2021/05/20 04:49:59;;;;;;;;;;;;;;;;;;5111842;28;39763;-84
2021/05/20 04:52:24;;;;;;;;;;;;;;;;;;5093445;28;38836;-81
2021/05/20 04:54:50;;;;;;;;;;;;;;;;;;5111536;28;39105;-83
2021/05/20 04:57:15;;;;;;;;;;;;;;;;;;5111301;28;38826;-84
2021/05/20 04:59:41;;;;;;;;;;;;;;;;;;5112158;28;39579;-83
2021/05/20 05:02:06;;;;;;;;;;;;;;;;;;5093082;28;38347;-83
2021/05/20 05:04:32;;;;;;;;;;;;;;;;;;5111842;28;38825;-76
2021/05/20 05:06:57;;;;;;;;;;;;;;;;;;5094746;28;38163;-80
2021/05/20 05:09:23;;;;;;;;;;;;;;;;;;5113162;28;39532;-81
2021/05/20 05:11:48;;;;;;;;;;;;;;;;;;5110955;28;40157;-81
2021/05/20 05:14:14;;;;;;;;;;;;;;;;;;5109412;28;39027;-78
2021/05/20 05:16:39;;;;;;;;;;;;;;;;;;5112072;28;39038;-79
2021/05/20 05:19:04;;;;;;;;;;;;;;;;;;5112690;28;39532;-79
2021/05/20 05:21:30;;;;;;;;;;;;;;;;;;5121941;28;40314;-80
2021/05/20 05:23:55;;;;;;;;;;;;;;;;;;5120691;28;39167;-78
2021/05/20 05:26:24;;;;;;;;;;;;;;;;;;5110552;28;39608;-85
2021/05/20 05:28:49;;;;;;;;;;;;;;;;;;5111067;28;39775;-83
2021/05/20 05:31:18;;;;;;;;;;;;;;;;;;5110818;28;40945;-84
2021/05/20 05:33:44;;;;;;;;;;;;;;;;;;5112396;28;38933;-84
2021/05/20 05:36:09;;;;;;;;;;;;;;;;;;5110766;28;38466;-81
2021/05/20 05:38:34;;;;;;;;;;;;;;;;;;5110119;28;39647;-80
2021/05/20 05:41:00;;;;;;;;;;;;;;;;;;5092048;28;40568;-77
2021/05/20 05:43:26;;;;;;;;;;;;;;;;;;5110581;28;39572;-82
2021/05/20 05:45:51;;;;;;;;;;;;;;;;;;5111172;28;38318;-83
2021/05/20 05:48:17;;;;;;;;;;;;;;;;;;5111609;28;40715;-81
2021/05/20 05:50:43;;;;;;;;;;;;;;;;;;5111304;28;40227;-81
2021/05/20 05:53:09;;;;;;;;;;;;;;;;;;5110070;28;38967;-83
2021/05/20 05:55:34;;;;;;;;;;;;;;;;;;5110942;28;38312;-85
2021/05/20 05:58:00;;;;;;;;;;;;;;;;;;5110335;28;40434;-73
2021/05/20 06:00:25;;;;;;;;;;;;;;;;;;5109609;28;38969;-73
2021/05/20 06:02:51;;;;;;;;;;;;;;;;;;5110575;28;39096;-73
2021/05/20 06:05:18;;;;;;;;;;;;;;;;;;5110817;28;38382;-77
2021/05/20 06:07:43;;;;;;;;;;;;;;;;;;5111543;28;40234;-75
2021/05/20 06:10:09;;;;;;;;;;;;;;;;;;5110787;28;41363;-76
2021/05/20 06:12:34;;;;;;;;;;;;;;;;;;5109186;28;39207;-78
2021/05/20 06:14:59;;;;;;;;;;;;;;;;;;5109814;28;38192;-82
2021/05/20 06:17:25;;;;;;;;;;;;;;;;;;5109010;28;40033;-79
2021/05/20 06:19:50;;;;;;;;;;;;;;;;;;5111145;28;40256;-81
2021/05/20 06:22:16;;;;;;;;;;;;;;;;;;5112066;28;40147;-83
2021/05/20 06:24:42;;;;;;;;;;;;;;;;;;5093295;28;38225;-82
2021/05/20 06:27:07;;;;;;;;;;;;;;;;;;5091202;28;38933;-82
2021/05/20 06:29:33;;;;;;;;;;;;;;;;;;5110039;28;40451;-76
2021/05/20 06:31:59;;;;;;;;;;;;;;;;;;5109483;28;38783;-82
2021/05/20 06:34:24;;;;;;;;;;;;;;;;;;5111454;28;38313;-81
2021/05/20 06:36:50;;;;;;;;;;;;;;;;;;5109879;28;40958;-74
2021/05/20 06:39:15;;;;;;;;;;;;;;;;;;5111268;27;40028;-82
2021/05/20 06:41:41;;;;;;;;;;;;;;;;;;5113812;28;39541;-82
2021/05/20 06:44:06;;;;;;;;;;;;;;;;;;5114774;28;39285;-83
2021/05/20 06:46:33;;;;;;;;;;;;;;;;;;5113987;28;39350;-81
2021/05/20 06:48:59;;;;;;;;;;;;;;;;;;5113790;28;41843;-79
2021/05/20 06:51:25;;;;;;;;;;;;;;;;;;5113388;28;39907;-81
2021/05/20 06:53:51;;;;;;;;;;;;;;;;;;5110532;28;43172;-81
2021/05/20 06:56:18;;;;;;;;;;;;;;;;;;5113594;28;39895;-79
2021/05/20 07:01:46;;;;;;;;;;;;;;;;;;5047507;28;39314;-79
2021/05/20 07:04:12;;;;;;;;;;;;;;;;;;5080272;28;38187;-82
2021/05/20 07:06:37;;;;;;;;;;;;;;;;;;5112072;28;41016;-72
2021/05/20 07:09:04;;;;;;;;;;;;;;;;;;5095649;28;39975;-82
2021/05/20 07:11:29;;;;;;;;;;;;;;;;;;5111317;28;38724;-81
2021/05/20 07:13:55;;;;;;;;;;;;;;;;;;5110630;28;38515;-75
2021/05/20 07:16:20;;;;;;;;;;;;;;;;;;5112388;28;39806;-73
2021/05/20 07:18:46;;;;;;;;;;;;;;;;;;5112607;28;40250;-76
2021/05/20 07:21:11;;;;;;;;;;;;;;;;;;5113335;28;39650;-79
2021/05/20 07:23:37;;;;;;;;;;;;;;;;;;5113000;28;38330;-77
2021/05/20 07:26:02;;;;;;;;;;;;;;;;;;5113182;28;39721;-82
2021/05/20 07:28:28;;;;;;;;;;;;;;;;;;5112999;28;40530;-74
2021/05/20 07:30:53;;;;;;;;;;;;;;;;;;5113176;28;40051;-78
2021/05/20 07:33:19;;;;;;;;;;;;;;;;;;5113995;28;38760;-71
2021/05/20 07:35:44;;;;;;;;;;;;;;;;;;5110450;28;41267;-71
2021/05/20 07:38:10;;;;;;;;;;;;;;;;;;5112218;28;39953;-76
2021/05/20 07:40:35;;;;;;;;;;;;;;;;;;5112731;28;39665;-87
2021/05/20 07:43:01;;;;;;;;;;;;;;;;;;5112350;28;38546;-81
2021/05/20 07:45:26;;;;;;;;;;;;;;;;;;5111351;28;39577;-81
2021/05/20 07:47:52;;;;;;;;;;;;;;;;;;5113771;28;40950;-87
2021/05/20 07:50:17;;;;;;;;;;;;;;;;;;5109629;27;40171;-90
2021/05/20 07:52:42;;;;;;;;;;;;;;;;;;5094125;28;38381;-83
2021/05/20 07:55:08;;;;;;;;;;;;;;;;;;5112183;28;40721;-88
2021/05/20 07:57:33;;;;;;;;;;;;;;;;;;5129200;27;40874;-83
2021/05/20 07:59:59;;;;;;;;;;;;;;;;;;5113739;28;39050;-76
2021/05/20 08:04:52;;;;;;;;;;;;;;;;;;5114213;28;39819;-85
2021/05/20 08:10:04;;;;;;;;;;;;;;;;;;5116128;28;40017;-89
2021/05/20 08:12:30;;;;;;;;;;;;;;;;;;5112088;27;38357;-86
2021/05/20 08:14:55;;;;;;;;;;;;;;;;;;5114588;28;40284;-79
2021/05/20 08:17:21;;;;;;;;;;;;;;;;;;5114349;28;40988;-92
2021/05/20 08:19:46;;;;;;;;;;;;;;;;;;5115221;28;39637;-90
2021/05/20 08:22:12;;;;;;;;;;;;;;;;;;5120805;28;38412;-78
2021/05/20 08:24:37;;;;;;;;;;;;;;;;;;5120330;28;40582;-77
2021/05/20 08:27:03;;;;;;;;;;;;;;;;;;5113370;28;42581;-72
2021/05/20 08:29:30;;;;;;;;;;;;;;;;;;5113425;28;40028;-77
2021/05/20 08:31:55;;;;;;;;;;;;;;;;;;5111826;28;38413;-74
2021/05/20 08:34:20;;;;;;;;;;;;;;;;;;5110925;28;40573;-72
2021/05/20 08:38:41;;;;;;;;;;;;;;;;;;5107233;28;20457;-77
2021/05/20 08:41:07;;;;;;;;;;;;;;;;;;5107712;28;38276;-77
2021/05/20 08:43:32;;;;;;;;;;;;;;;;;;5107951;28;39963;-74
2021/05/20 08:45:58;;;;;;;;;;;;;;;;;;5107833;27;41064;-75
2021/05/20 08:48:23;;;;;;;;;;;;;;;;;;5109300;28;38472;-73
2021/05/20 08:50:49;;;;;;;;;;;;;;;;;;5108141;28;38762;-73
2021/05/20 08:53:14;;;;;;;;;;;;;;;;;;5108723;28;39972;-75
2021/05/20 08:55:40;;;;;;;;;;;;;;;;;;5108959;28;40780;-74
2021/05/20 08:58:05;;;;;;;;;;;;;;;;;;5108548;28;39301;-76
2021/05/20 09:00:31;;;;;;;;;;;;;;;;;;5108593;27;38701;-75
2021/05/20 09:02:56;;;;;;;;;;;;;;;;;;5108137;28;39818;-73
2021/05/20 09:05:22;;;;;;;;;;;;;;;;;;5106918;28;40256;-74
2021/05/20 09:07:50;;;;;;;;;;;;;;;;;;5108741;28;38120;-74
2021/05/20 09:10:17;;;;;;;;;;;;;;;;;;5108830;27;37727;-73
2021/05/20 09:12:43;;;;;;;;;;;;;;;;;;5108030;28;40398;-72
2021/05/20 09:15:08;;;;;;;;;;;;;;;;;;5107536;28;39974;-74
2021/05/20 09:17:34;;;;;;;;;;;;;;;;;;5105892;28;37273;-73
2021/05/20 09:19:59;;;;;;;;;;;;;;;;;;5109316;27;38849;-73
2021/05/20 09:22:25;;;;;;;;;;;;;;;;;;5108117;28;41037;-72
2021/05/20 09:24:50;;;;;;;;;;;;;;;;;;5107472;27;38575;-74
2021/05/20 09:27:16;;;;;;;;;;;;;;;;;;5108060;28;38441;-74
2021/05/20 09:29:42;;;;;;;;;;;;;;;;;;5107753;28;37916;-73
2021/05/20 09:32:09;;;;;;;;;;;;;;;;;;5107770;28;39838;-73
2021/05/20 09:34:36;;;;;;;;;;;;;;;;;;5094569;28;41221;-74
2021/05/20 09:37:01;;;;;;;;;;;;;;;;;;5086003;28;39511;-78
2021/05/20 09:39:27;;;;;;;;;;;;;;;;;;5087324;28;37540;-71
2021/05/20 09:41:52;;;;;;;;;;;;;;;;;;5107763;27;40438;-75
2021/05/20 09:44:18;;;;;;;;;;;;;;;;;;5111177;28;41016;-75
2021/05/20 09:46:43;;;;;;;;;;;;;;;;;;5099456;28;38232;-71
2021/05/20 09:49:09;;;;;;;;;;;;;;;;;;5084285;28;38927;-72
2021/05/20 09:51:34;;;;;;;;;;;;;;;;;;5082155;28;39410;-73
2021/05/20 09:53:59;;;;;;;;;;;;;;;;;;5091179;28;41326;-72
2021/05/20 09:56:25;;;;;;;;;;;;;;;;;;5092196;28;38603;-74
2021/05/20 09:58:50;;;;;;;;;;;;;;;;;;5093971;28;37952;-74
2021/05/20 10:01:16;;;;;;;;;;;;;;;;;;5094470;28;39645;-73
2021/05/20 10:03:41;;;;;;;;;;;;;;;;;;5091840;28;41373;-76
2021/05/20 10:06:08;;;;;;;;;;;;;;;;;;5092072;28;38469;-72
2021/05/20 10:08:35;;;;;;;;;;;;;;;;;;5092823;28;37747;-75
2021/05/20 10:11:02;;;;;;;;;;;;;;;;;;5093847;28;39985;-74
2021/05/20 10:13:29;;;;;;;;;;;;;;;;;;5092804;28;41072;-75
2021/05/20 10:15:54;;;;;;;;;;;;;;;;;;5085099;28;36927;-73
2021/05/20 10:18:20;;;;;;;;;;;;;;;;;;5082670;28;38249;-73
2021/05/20 10:20:45;;;;;;;;;;;;;;;;;;5083568;28;39521;-75
2021/05/20 10:23:11;;;;;;;;;;;;;;;;;;5090074;28;40334;-77
2021/05/20 10:25:36;;;;;;;;;;;;;;;;;;5093459;28;38519;-74
2021/05/20 10:28:02;;;;;;;;;;;;;;;;;;5093436;28;37678;-74
2021/05/20 10:30:27;;;;;;;;;;;;;;;;;;5092910;28;39770;-76
2021/05/20 10:32:52;;;;;;;;;;;;;;;;;;5093482;28;40382;-76
2021/05/20 10:35:18;;;;;;;;;;;;;;;;;;5092485;28;39518;-76
2021/05/20 10:37:43;;;;;;;;;;;;;;;;;;5098257;28;38068;-73
2021/05/20 10:40:09;;;;;;;;;;;;;;;;;;5101039;27;31933;-75
2021/05/20 10:42:34;;;;;;;;;;;;;;;;;;5098200;28;30035;-73
2021/05/20 10:45:00;;;;;;;;;;;;;;;;;;5093674;28;32910;-74
2021/05/20 10:47:25;;;;;;;;;;;;;;;;;;5080076;28;31785;-73
2021/05/20 10:49:53;;;;;;;;;;;;;;;;;;5080429;28;31937;-73
2021/05/20 10:52:18;;;;;;;;;;;;;;;;;;5087852;28;32392;-75
2021/05/20 10:54:44;;;;;;;;;;;;;;;;;;5099890;28;32838;-74
2021/05/20 10:57:09;;;;;;;;;;;;;;;;;;5100494;28;31393;-77
2021/05/20 10:59:34;;;;;;;;;;;;;;;;;;5098390;28;30058;-74
2021/05/20 11:02:00;;;;;;;;;;;;;;;;;;5098308;28;32941;-77
2021/05/20 11:04:27;;;;;;;;;;;;;;;;;;5096046;28;33326;-73
2021/05/20 11:06:52;;;;;;;;;;;;;;;;;;5093338;28;31531;-77
2021/05/20 11:09:18;;;;;;;;;;;;;;;;;;5099748;28;31998;-78
2021/05/20 11:11:43;;;;;;;;;;;;;;;;;;5096296;28;33536;-76
2021/05/20 11:14:09;;;;;;;;;;;;;;;;;;5094401;28;32365;-75
2021/05/20 11:16:34;;;;;;;;;;;;;;;;;;5090909;28;32357;-76
2021/05/20 11:18:59;;;;;;;;;;;;;;;;;;5098785;28;33722;-78
2021/05/20 11:21:25;;;;;;;;;;;;;;;;;;5099487;28;33506;-80
2021/05/20 11:23:51;;;;;;;;;;;;;;;;;;5081753;28;32582;-78
2021/05/20 11:26:16;;;;;;;;;;;;;;;;;;5098696;28;32727;-75
2021/05/20 11:28:42;;;;;;;;;;;;;;;;;;5099496;28;32082;-78
2021/05/20 11:31:08;;;;;;;;;;;;;;;;;;5099444;28;32860;-78
2021/05/20 11:33:43;;;;;;;;;;;;;;;;;;5099516;28;32706;-77
2021/05/20 11:36:12;;;;;;;;;;;;;;;;;;5097527;28;31756;-78
2021/05/20 11:38:37;;;;;;;;;;;;;;;;;;5100357;27;32295;-77
2021/05/20 11:41:03;;;;;;;;;;;;;;;;;;5099396;28;32923;-78
2021/05/20 11:43:28;;;;;;;;;;;;;;;;;;5098474;28;33375;-77
2021/05/20 11:45:54;;;;;;;;;;;;;;;;;;5086063;28;31539;-75
2021/05/20 11:48:19;;;;;;;;;;;;;;;;;;5079082;28;31800;-75
2021/05/20 11:50:45;;;;;;;;;;;;;;;;;;5079100;28;33497;-76
2021/05/20 11:53:10;;;;;;;;;;;;;;;;;;5089975;28;32261;-77
2021/05/20 11:55:35;;;;;;;;;;;;;;;;;;5088652;28;31060;-74
2021/05/20 11:58:01;;;;;;;;;;;;;;;;;;5089318;28;33183;-79
2021/05/20 12:00:26;;;;;;;;;;;;;;;;;;5098669;28;32729;-76
2021/05/20 12:02:52;;;;;;;;;;;;;;;;;;5085915;28;31871;-75
2021/05/20 12:05:17;;;;;;;;;;;;;;;;;;5079252;28;32133;-76
2021/05/20 12:07:43;;;;;;;;;;;;;;;;;;5097225;28;31922;-77
2021/05/20 12:10:08;;;;;;;;;;;;;;;;;;5099780;28;32376;-76
2021/05/20 12:12:34;;;;;;;;;;;;;;;;;;5098774;28;32692;-77
2021/05/20 12:14:59;;;;;;;;;;;;;;;;;;5098098;28;32459;-77
2021/05/20 12:17:25;;;;;;;;;;;;;;;;;;5095152;28;30913;-77
2021/05/20 12:19:53;;;;;;;;;;;;;;;;;;5099460;28;32893;-75
2021/05/20 12:22:19;;;;;;;;;;;;;;;;;;5099563;28;32933;-77
2021/05/20 12:24:44;;;;;;;;;;;;;;;;;;5100060;28;32819;-76
2021/05/20 12:27:10;;;;;;;;;;;;;;;;;;5099096;28;32830;-75
2021/05/20 12:29:35;;;;;;;;;;;;;;;;;;5095343;28;33916;-77
2021/05/20 12:32:01;;;;;;;;;;;;;;;;;;5095181;28;32959;-75
2021/05/20 12:34:26;;;;;;;;;;;;;;;;;;5097312;28;32504;-79
2021/05/20 12:36:52;;;;;;;;;;;;;;;;;;5093239;28;32261;-78
2021/05/20 12:39:17;;;;;;;;;;;;;;;;;;5086151;28;31013;-81
2021/05/20 12:41:43;;;;;;;;;;;;;;;;;;5081736;28;32468;-80
2021/05/20 12:44:08;;;;;;;;;;;;;;;;;;5092280;28;31671;-79
2021/05/20 12:46:34;;;;;;;;;;;;;;;;;;5086050;28;33092;-80
2021/05/20 12:48:59;;;;;;;;;;;;;;;;;;5091243;28;32845;-80
2021/05/20 12:51:24;;;;;;;;;;;;;;;;;;5087541;28;32216;-81
2021/05/20 12:53:50;;;;;;;;;;;;;;;;;;5091158;28;31791;-78
2021/05/20 12:56:15;;;;;;;;;;;;;;;;;;5084667;28;32396;-79
2021/05/20 12:58:41;;;;;;;;;;;;;;;;;;5078447;28;32449;-76
2021/05/20 13:01:06;;;;;;;;;;;;;;;;;;5091309;28;33433;-77
2021/05/20 13:03:32;;;;;;;;;;;;;;;;;;5089094;28;31857;-75
2021/05/20 13:05:57;;;;;;;;;;;;;;;;;;5087254;28;32391;-76
2021/05/20 13:08:23;;;;;;;;;;;;;;;;;;5094207;28;32806;-76
2021/05/20 13:10:48;;;;;;;;;;;;;;;;;;5098360;28;32561;-78
2021/05/20 13:13:13;;;;;;;;;;;;;;;;;;5098409;28;31850;-76
2021/05/20 13:15:39;;;;;;;;;;;;;;;;;;5084802;28;31062;-76
2021/05/20 13:18:31;;;;;;;;;;;;;;;;;;5097882;28;32973;-79
2021/05/20 13:23:18;;;;;;;;;;;;;;;;;;5099912;28;32841;-80
2021/05/20 13:25:44;;;;;;;;;;;;;;;;;;5103000;28;32221;-80
2021/05/20 13:28:09;;;;;;;;;;;;;;;;;;5092672;28;32478;-71
2021/05/20 13:30:38;;;;;;;;;;;;;;;;;;5090245;27;33450;-75
2021/05/20 13:33:12;;;;;;;;;;;;;;;;;;5087189;28;31795;-75
2021/05/20 13:35:38;;;;;;;;;;;;;;;;;;5087467;28;32538;-77
2021/05/20 13:38:09;;;;;;;;;;;;;;;;;;5098776;28;32628;-76
2021/05/20 13:40:44;;;;;;;;;;;;;;;;;;5100432;28;33289;-76
2021/05/20 13:43:13;;;;;;;;;;;;;;;;;;5098997;28;32084;-77
2021/05/20 13:45:39;;;;;;;;;;;;;;;;;;5094001;28;33340;-76
2021/05/20 13:48:04;;;;;;;;;;;;;;;;;;5098126;28;32537;-79
2021/05/20 13:50:33;;;;;;;;;;;;;;;;;;5099397;28;33867;-77
2021/05/20 13:53:14;;;;;;;;;;;;;;;;;;5099107;28;31994;-76
2021/05/20 13:55:42;;;;;;;;;;;;;;;;;;5098959;28;32913;-80
2021/05/20 13:58:11;;;;;;;;;;;;;;;;;;5099348;28;32909;-80
2021/05/20 14:00:38;;;;;;;;;;;;;;;;;;5101675;27;32590;-77
2021/05/20 14:03:16;;;;;;;;;;;;;;;;;;5099094;28;32238;-78
2021/05/20 14:05:44;;;;;;;;;;;;;;;;;;5105878;28;32246;-78
2021/05/20 14:08:15;;;;;;;;;;;;;;;;;;5105034;28;32980;-75
2021/05/20 14:10:44;;;;;;;;;;;;;;;;;;5101759;28;32295;-77
2021/05/20 14:13:19;;;;;;;;;;;;;;;;;;5099789;28;31880;-78
2021/05/20 14:15:48;;;;;;;;;;;;;;;;;;5099988;28;32389;-76
2021/05/20 14:18:15;;;;;;;;;;;;;;;;;;5092164;28;32858;-76
2021/05/20 14:20:45;;;;;;;;;;;;;;;;;;5081796;28;32397;-76
2021/05/20 14:23:12;;;;;;;;;;;;;;;;;;5090518;28;31603;-76
2021/05/20 14:25:38;;;;;;;;;;;;;;;;;;5060401;28;30418;-76
2021/05/20 14:28:08;;;;;;;;;;;;;;;;;;5086577;28;32495;-76
2021/05/20 14:30:34;;;;;;;;;;;;;;;;;;5097050;28;32462;-76
2021/05/20 14:33:02;;;;;;;;;;;;;;;;;;5096855;28;30633;-76
2021/05/20 14:35:31;;;;;;;;;;;;;;;;;;5083646;28;32921;-76
2021/05/20 14:37:59;;;;;;;;;;;;;;;;;;5093380;28;32701;-75
2021/05/20 14:40:25;;;;;;;;;;;;;;;;;;5089331;28;33147;-76
2021/05/20 14:42:57;;;;;;;;;;;;;;;;;;5099342;28;32531;-75
2021/05/20 14:45:22;;;;;;;;;;;;;;;;;;5092796;28;32346;-75
2021/05/20 14:47:48;;;;;;;;;;;;;;;;;;5099144;28;31722;-78
2021/05/20 14:50:14;;;;;;;;;;;;;;;;;;5099694;28;33087;-75
2021/05/20 14:52:43;;;;;;;;;;;;;;;;;;5099907;28;32454;-75
2021/05/20 15:08:38;;;;;;;;;;;;;;;;;;5087554;28;33041;-75
2021/05/20 15:14:04;;;;;;;;;;;;;;;;;;5091314;28;31384;-74
2021/05/20 15:16:31;;;;;;;;;;;;;;;;;;5086175;28;32197;-74
2021/05/20 15:18:59;;;;;;;;;;;;;;;;;;5084838;28;32866;-74
2021/05/20 15:21:25;;;;;;;;;;;;;;;;;;5086239;28;32718;-74
2021/05/20 15:23:53;;;;;;;;;;;;;;;;;;5090025;28;31470;-75
2021/05/20 15:26:19;;;;;;;;;;;;;;;;;;5086521;28;32058;-75
2021/05/20 15:28:44;;;;;;;;;;;;;;;;;;5091719;28;32927;-74
2021/05/20 15:31:10;;;;;;;;;;;;;;;;;;5090762;28;32794;-74
2021/05/20 15:33:36;;;;;;;;;;;;;;;;;;5090065;28;31540;-74
2021/05/20 15:36:01;;;;;;;;;;;;;;;;;;5084131;28;31786;-75
2021/05/20 15:38:27;;;;;;;;;;;;;;;;;;5086962;28;33567;-74
2021/05/20 15:41:03;;;;;;;;;;;;;;;;;;5086648;28;32237;-75
2021/05/20 15:43:28;;;;;;;;;;;;;;;;;;5092964;28;31520;-74
2021/05/20 15:45:59;;;;;;;;;;;;;;;;;;5093520;28;32019;-75
2021/05/20 15:50:59;;;;;;;;;;;;;;;;;;5088537;28;32525;-75
2021/05/20 15:53:24;;;;;;;;;;;;;;;;;;5087212;28;31851;-74
2021/05/20 15:55:50;;;;;;;;;;;;;;;;;;5091621;28;32970;-80
2021/05/20 15:58:15;;;;;;;;;;;;;;;;;;5092628;28;32871;-76
2021/05/20 16:00:41;;;;;;;;;;;;;;;;;;5089808;27;32385;-80
2021/05/20 16:03:06;;;;;;;;;;;;;;;;;;5097093;28;30125;-81
2021/05/20 16:05:33;;;;;;;;;;;;;;;;;;5105770;28;32580;-79
2021/05/20 16:08:08;;;;;;;;;;;;;;;;;;5104645;28;36989;-77
2021/05/20 16:10:56;;;;;;;;;;;;;;;;;;5097536;28;32100;-80
2021/05/20 16:15:47;;;;;;;;;;;;;;;;;;5097139;28;32340;-78
2021/05/20 16:18:13;;;;;;;;;;;;;;;;;;5097260;28;31588;-81
2021/05/20 16:20:39;;;;;;;;;;;;;;;;;;5095472;28;32526;-81
2021/05/20 16:33:59;;;;;;;;;;;;;;;;;;5092064;27;32758;-74
2021/05/20 16:36:50;;;;;;;;;;;;;;;;;;5092786;28;33307;-77
2021/05/20 16:39:16;;;;;;;;;;;;;;;;;;5089797;28;32906;-77
2021/05/20 16:41:41;;;;;;;;;;;;;;;;;;5082122;28;32028;-75
2021/05/20 16:44:07;;;;;;;;;;;;;;;;;;5097138;28;31735;-75
2021/05/20 16:46:32;;;;;;;;;;;;;;;;;;5099108;28;32166;-76
2021/05/20 16:48:57;;;;;;;;;;;;;;;;;;5095167;28;32510;-75
2021/05/20 16:51:25;;;;;;;;;;;;;;;;;;5082130;28;31902;-75
2021/05/20 16:53:50;;;;;;;;;;;;;;;;;;5096074;28;32792;-76
2021/05/20 16:56:21;;;;;;;;;;;;;;;;;;5095442;28;32323;-76
2021/05/20 16:58:48;;;;;;;;;;;;;;;;;;5097476;28;32729;-75
2021/05/20 17:01:14;;;;;;;;;;;;;;;;;;5085736;28;32118;-76
2021/05/20 17:03:39;;;;;;;;;;;;;;;;;;5101387;28;32237;-77
2021/05/20 17:06:05;;;;;;;;;;;;;;;;;;5088111;28;32277;-76
2021/05/20 17:08:30;;;;;;;;;;;;;;;;;;5088890;28;32825;-75
2021/05/20 17:10:58;;;;;;;;;;;;;;;;;;5091030;28;31959;-76
2021/05/20 17:13:27;;;;;;;;;;;;;;;;;;5091555;28;32780;-77
2021/05/20 17:15:52;;;;;;;;;;;;;;;;;;5101326;27;31787;-77
2021/05/20 17:18:18;;;;;;;;;;;;;;;;;;5100304;28;33511;-76
2021/05/20 17:20:43;;;;;;;;;;;;;;;;;;5101935;28;33038;-76
2021/05/20 17:23:09;;;;;;;;;;;;;;;;;;5100250;28;31735;-78
2021/05/20 17:25:34;;;;;;;;;;;;;;;;;;5079641;28;32324;-75